Pinoso, Spain
Current Conditions -  °F | °C
As of 12:30 AM on Friday 19 Dec 2014 (Local Time) from LEAL Reporting Station
Clear Clear  
Wind Chill: 50°   Ceiling: Unl
Heat Index: 50°   Visibility: 6mi
Dew Point: 46°   Wind: 2mph
Humidity: 87%   Direction: NA
Pressure: 30.36"   Gusts: NA
Location:  38.42°N, 1.03°W
Report Text: LEAL 182330Z VRB02KT CAVOK 10/08 Q1028 NOSIG
Loading
Personal Weather Stations






























Interactive Weather Map New forecast layout! Learn more

10-Day Weather Forecast

Advertisements
Track Severe Weather on mobile